createdAt,value
2023-06-10T00:00:14.317Z,19.52
2023-06-10T00:02:43.866Z,19.48
2023-06-10T00:05:12.499Z,19.38
2023-06-10T00:07:42.185Z,19.33
2023-06-10T00:10:11.625Z,19.28
2023-06-10T00:12:40.249Z,19.21
2023-06-10T00:15:11.767Z,19.15
2023-06-10T00:17:42.034Z,19.11
2023-06-10T00:20:13.170Z,19.05
2023-06-10T00:22:42.730Z,19.02
2023-06-10T00:25:12.763Z,19.00
2023-06-10T00:27:41.438Z,18.93
2023-06-10T00:30:10.286Z,18.86
2023-06-10T00:32:39.323Z,18.80
2023-06-10T00:35:08.406Z,18.74
2023-06-10T00:37:37.326Z,18.68
2023-06-10T00:40:06.585Z,18.62
2023-06-10T00:42:35.152Z,18.55
2023-06-10T00:45:04.553Z,18.49
2023-06-10T00:47:33.534Z,18.42
2023-06-10T00:50:02.119Z,18.37
2023-06-10T00:52:31.494Z,18.34
2023-06-10T00:55:00.822Z,18.30
2023-06-10T00:57:30.407Z,18.23
2023-06-10T01:00:02.110Z,18.19
2023-06-10T01:02:30.835Z,18.14
2023-06-10T01:04:59.318Z,18.09
2023-06-10T01:07:36.788Z,18.06
2023-06-10T01:10:14.332Z,18.05
2023-06-10T01:12:51.401Z,17.98
2023-06-10T01:15:20.044Z,17.95
2023-06-10T01:18:05.734Z,17.92
2023-06-10T01:20:34.492Z,17.87
2023-06-10T01:23:05.061Z,17.85
2023-06-10T01:25:37.496Z,17.83
2023-06-10T01:28:17.606Z,17.80
2023-06-10T01:31:15.833Z,17.78
2023-06-10T01:33:53.760Z,17.74
2023-06-10T01:36:24.967Z,17.69
2023-06-10T01:38:55.744Z,17.67
2023-06-10T01:41:24.522Z,17.62
2023-06-10T01:43:53.154Z,17.58
2023-06-10T01:46:22.554Z,17.54
2023-06-10T01:48:51.409Z,17.51
2023-06-10T01:51:20.033Z,17.48
2023-06-10T01:53:48.268Z,17.42
2023-06-10T01:56:20.086Z,17.40
2023-06-10T01:58:50.450Z,17.35
2023-06-10T02:01:18.992Z,17.31
2023-06-10T02:03:47.256Z,17.26
2023-06-10T02:06:15.690Z,17.24
2023-06-10T02:08:43.939Z,17.21
2023-06-10T02:11:12.215Z,17.16
2023-06-10T02:13:41.148Z,17.14
2023-06-10T02:16:10.597Z,17.13
2023-06-10T02:18:39.448Z,17.09
2023-06-10T02:21:07.997Z,17.08
2023-06-10T02:23:36.562Z,17.06
2023-06-10T02:26:05.225Z,17.05
2023-06-10T02:28:33.646Z,17.01
2023-06-10T02:31:01.597Z,16.98
2023-06-10T02:33:29.857Z,16.96
2023-06-10T02:35:58.704Z,16.92
2023-06-10T02:38:27.108Z,16.91
2023-06-10T02:40:55.783Z,16.90
2023-06-10T02:43:24.294Z,16.87
2023-06-10T02:45:52.708Z,16.82
2023-06-10T02:48:20.973Z,16.77
2023-06-10T02:50:49.235Z,16.75
2023-06-10T02:53:17.501Z,16.73
2023-06-10T02:55:46.088Z,16.69
2023-06-10T02:58:14.389Z,16.66
2023-06-10T03:00:43.619Z,16.65
2023-06-10T03:03:11.969Z,16.62
2023-06-10T03:05:41.265Z,16.60
2023-06-10T03:08:09.459Z,16.59
2023-06-10T03:10:37.767Z,16.60
2023-06-10T03:13:06.320Z,16.58
2023-06-10T03:15:35.119Z,16.55
2023-06-10T03:18:03.753Z,16.54
2023-06-10T03:20:32.184Z,16.52
2023-06-10T03:23:00.542Z,16.50
2023-06-10T03:25:29.901Z,16.46
2023-06-10T03:27:58.141Z,16.43
2023-06-10T03:30:26.381Z,16.42
2023-06-10T03:32:54.668Z,16.40
2023-06-10T03:35:23.381Z,16.37
2023-06-10T03:37:51.965Z,16.38
2023-06-10T03:40:20.224Z,16.36
2023-06-10T03:42:48.464Z,16.37
2023-06-10T03:45:17.197Z,16.38
2023-06-10T03:47:46.399Z,16.42
2023-06-10T03:50:15.060Z,16.44
2023-06-10T03:52:43.438Z,16.47
2023-06-10T03:55:14.671Z,16.52
2023-06-10T03:57:43.116Z,16.52
2023-06-10T04:00:12.826Z,16.58
2023-06-10T04:02:47.292Z,16.59
2023-06-10T04:05:17.318Z,16.57
2023-06-10T04:07:46.109Z,16.58
2023-06-10T04:10:14.491Z,16.62
2023-06-10T04:12:43.097Z,16.63
2023-06-10T04:15:11.899Z,16.64
2023-06-10T04:17:41.224Z,16.64
2023-06-10T04:20:11.063Z,16.67
2023-06-10T04:22:39.323Z,16.70
2023-06-10T04:25:08.914Z,16.72
2023-06-10T04:27:37.452Z,16.71
2023-06-10T04:30:06.662Z,16.67
2023-06-10T04:32:35.044Z,16.64
2023-06-10T04:35:03.308Z,16.65
2023-06-10T04:37:31.626Z,16.68
2023-06-10T04:40:00.057Z,16.73
2023-06-10T04:42:28.258Z,16.76
2023-06-10T04:44:56.805Z,16.77
2023-06-10T04:47:25.202Z,16.79
2023-06-10T04:49:53.850Z,16.86
2023-06-10T04:52:22.118Z,16.86
2023-06-10T04:54:50.498Z,16.89
2023-06-10T04:57:19.493Z,16.91
2023-06-10T04:59:48.002Z,16.93
2023-06-10T05:02:16.260Z,16.97
2023-06-10T05:04:44.587Z,16.95
2023-06-10T05:07:12.928Z,17.03
2023-06-10T05:09:41.341Z,17.04
2023-06-10T05:12:10.182Z,17.05
2023-06-10T05:14:38.420Z,17.03
2023-06-10T05:17:07.794Z,17.01
2023-06-10T05:19:36.903Z,17.08
2023-06-10T05:22:05.474Z,17.14
2023-06-10T05:24:33.684Z,17.17
2023-06-10T05:27:02.079Z,17.25
2023-06-10T05:29:30.779Z,17.38
2023-06-10T05:32:03.262Z,17.51
2023-06-10T05:34:34.121Z,17.59
2023-06-10T05:37:02.630Z,17.68
2023-06-10T05:39:30.927Z,17.87
2023-06-10T05:41:59.993Z,18.00
2023-06-10T05:44:28.366Z,18.10
2023-06-10T05:46:56.729Z,18.24
2023-06-10T05:49:25.553Z,18.40
2023-06-10T05:51:54.166Z,18.50
2023-06-10T05:54:22.562Z,18.58
2023-06-10T05:56:50.948Z,18.68
2023-06-10T05:59:19.410Z,18.85
2023-06-10T06:01:47.628Z,19.05
2023-06-10T06:04:15.923Z,19.30
2023-06-10T06:06:44.354Z,19.50
2023-06-10T06:09:12.558Z,19.77
2023-06-10T06:11:40.959Z,20.03
2023-06-10T06:14:09.186Z,20.14
2023-06-10T06:16:37.503Z,20.34
2023-06-10T06:19:05.900Z,20.54
2023-06-10T06:21:34.105Z,20.79
2023-06-10T06:24:02.483Z,21.04
2023-06-10T06:26:31.024Z,21.25
2023-06-10T06:28:59.543Z,21.43
2023-06-10T06:31:28.165Z,21.60
2023-06-10T06:33:56.476Z,21.84
2023-06-10T06:36:25.202Z,21.97
2023-06-10T06:38:53.456Z,22.13
2023-06-10T06:41:22.950Z,22.38
2023-06-10T06:43:51.169Z,22.61
2023-06-10T06:46:19.395Z,22.82
2023-06-10T06:48:47.784Z,22.77
2023-06-10T06:51:16.139Z,22.89
2023-06-10T06:53:45.850Z,22.92
2023-06-10T06:56:14.554Z,23.04
2023-06-10T06:58:43.025Z,23.09
2023-06-10T07:01:11.271Z,23.27
2023-06-10T07:03:39.516Z,23.48
2023-06-10T07:06:07.821Z,23.38
2023-06-10T07:08:36.320Z,23.61
2023-06-10T07:11:04.605Z,23.59
2023-06-10T07:13:32.983Z,23.91
2023-06-10T07:16:01.194Z,24.13
2023-06-10T07:18:29.656Z,24.33
2023-06-10T07:20:58.098Z,24.40
2023-06-10T07:23:26.341Z,24.46
2023-06-10T07:25:54.771Z,24.39
2023-06-10T07:28:23.022Z,24.40
2023-06-10T07:30:51.603Z,24.51
2023-06-10T07:33:20.083Z,24.55
2023-06-10T07:35:48.445Z,24.69
2023-06-10T07:38:16.880Z,24.83
2023-06-10T07:40:45.194Z,24.89
2023-06-10T07:43:13.555Z,24.95
2023-06-10T07:45:45.223Z,24.96
2023-06-10T07:48:13.587Z,25.00
2023-06-10T07:50:42.164Z,24.93
2023-06-10T07:53:10.700Z,24.84
2023-06-10T07:55:39.111Z,24.93
2023-06-10T07:58:07.373Z,24.96
2023-06-10T08:00:35.736Z,25.14
2023-06-10T08:03:04.287Z,25.12
2023-06-10T08:05:32.730Z,25.21
2023-06-10T08:08:03.727Z,25.29
2023-06-10T08:10:32.738Z,25.21
2023-06-10T08:13:01.065Z,25.38
2023-06-10T08:15:29.333Z,25.13
2023-06-10T08:17:58.077Z,25.25
2023-06-10T08:20:26.537Z,25.33
2023-06-10T08:22:54.896Z,25.23
2023-06-10T08:25:23.710Z,25.21
2023-06-10T08:27:53.219Z,25.09
2023-06-10T08:30:21.594Z,25.05
2023-06-10T08:32:49.883Z,25.12
2023-06-10T08:35:18.092Z,25.22
2023-06-10T08:37:46.415Z,25.31
2023-06-10T08:40:15.095Z,25.37
2023-06-10T08:42:52.486Z,25.42
2023-06-10T08:45:21.157Z,25.35
2023-06-10T08:47:54.083Z,25.37
2023-06-10T08:50:23.269Z,25.38
2023-06-10T08:52:56.180Z,25.37
2023-06-10T08:55:44.238Z,25.29
2023-06-10T08:58:12.560Z,25.38
2023-06-10T09:00:41.168Z,25.41
2023-06-10T09:03:10.213Z,25.53
2023-06-10T09:05:38.829Z,25.34
2023-06-10T09:08:08.501Z,25.39
2023-06-10T09:10:37.035Z,25.63
2023-06-10T09:13:05.478Z,25.53
2023-06-10T09:15:33.861Z,25.57
2023-06-10T09:18:03.255Z,25.46
2023-06-10T09:20:31.672Z,25.54
2023-06-10T09:23:00.830Z,25.49
2023-06-10T09:25:40.731Z,25.69
2023-06-10T09:28:17.038Z,25.81
2023-06-10T09:30:45.285Z,25.73
2023-06-10T09:33:16.785Z,25.77
2023-06-10T09:35:49.794Z,25.61
2023-06-10T09:38:23.104Z,25.68
2023-06-10T09:40:56.121Z,25.73
2023-06-10T09:43:24.772Z,25.83
2023-06-10T09:45:58.588Z,25.89
2023-06-10T09:48:26.934Z,25.89
2023-06-10T09:50:55.181Z,25.83
2023-06-10T09:53:23.540Z,25.81
2023-06-10T09:55:52.330Z,25.82
2023-06-10T09:58:20.596Z,25.82
2023-06-10T10:00:55.545Z,25.61
2023-06-10T10:03:26.612Z,25.51
2023-06-10T10:06:01.899Z,25.39
2023-06-10T10:08:30.771Z,25.38
2023-06-10T10:10:59.940Z,25.33
2023-06-10T10:13:29.353Z,25.22
2023-06-10T10:16:02.244Z,25.20
2023-06-10T10:18:33.309Z,25.35
2023-06-10T10:21:09.036Z,25.38
2023-06-10T10:24:20.271Z,25.42
2023-06-10T10:26:50.692Z,25.43
2023-06-10T10:29:41.113Z,25.46
2023-06-10T10:32:09.884Z,25.61
2023-06-10T10:34:39.563Z,25.64
2023-06-10T10:37:07.905Z,25.70
2023-06-10T10:39:37.799Z,25.72
2023-06-10T10:42:10.864Z,25.79
2023-06-10T10:44:41.020Z,25.78
2023-06-10T10:47:13.416Z,25.89
2023-06-10T10:49:45.513Z,25.89
2023-06-10T10:52:14.461Z,25.87
2023-06-10T10:54:47.951Z,25.91
2023-06-10T10:57:17.504Z,25.94
2023-06-10T10:59:52.667Z,25.92
2023-06-10T11:02:44.734Z,26.00
2023-06-10T11:05:17.118Z,25.97
2023-06-10T11:07:57.355Z,25.98
2023-06-10T11:10:55.887Z,25.96
2023-06-10T11:13:24.547Z,25.99
2023-06-10T11:15:53.074Z,25.90
2023-06-10T11:18:34.150Z,25.86
2023-06-10T11:21:06.970Z,25.86
2023-06-10T11:23:36.269Z,25.87
2023-06-10T11:26:23.466Z,25.94
2023-06-10T11:28:57.528Z,26.04
2023-06-10T11:31:26.180Z,26.07
2023-06-10T11:34:07.457Z,26.14
2023-06-10T11:36:46.551Z,26.21
2023-06-10T11:39:15.739Z,26.26
2023-06-10T11:41:44.096Z,26.24
2023-06-10T11:44:18.250Z,26.27
2023-06-10T11:46:49.364Z,26.19
2023-06-10T11:49:17.614Z,26.21
2023-06-10T11:51:50.634Z,26.29
2023-06-10T11:54:19.691Z,26.32
2023-06-10T11:56:48.550Z,26.45
2023-06-10T11:59:16.860Z,26.57
2023-06-10T12:01:47.650Z,26.70
2023-06-10T12:04:19.239Z,26.76
2023-06-10T12:06:52.844Z,26.79
2023-06-10T12:09:33.566Z,26.78
2023-06-10T12:12:04.747Z,26.67
2023-06-10T12:15:03.874Z,26.57
2023-06-10T12:17:35.288Z,26.51
2023-06-10T12:20:11.090Z,26.44
2023-06-10T12:22:46.812Z,26.45
2023-06-10T12:25:16.136Z,26.55
2023-06-10T12:27:54.099Z,26.75
2023-06-10T12:30:27.422Z,26.91
2023-06-10T12:32:56.252Z,27.08
2023-06-10T12:35:26.745Z,27.16
2023-06-10T12:38:07.866Z,27.25
2023-06-10T12:40:41.064Z,27.25
2023-06-10T12:43:09.513Z,27.21
2023-06-10T12:45:40.702Z,27.20
2023-06-10T12:48:11.264Z,27.00
2023-06-10T12:50:44.384Z,26.81
2023-06-10T12:53:13.444Z,26.74
2023-06-10T12:55:41.665Z,26.18
2023-06-10T12:58:10.380Z,24.38
2023-06-10T13:00:38.596Z,22.22
2023-06-10T13:03:08.004Z,20.26
2023-06-10T13:05:39.978Z,18.76
2023-06-10T13:08:11.173Z,18.37
2023-06-10T13:10:39.823Z,18.09
2023-06-10T13:13:09.174Z,18.09
2023-06-10T13:15:42.648Z,18.16
2023-06-10T13:18:12.082Z,18.14
2023-06-10T13:20:40.487Z,18.32
2023-06-10T13:23:09.024Z,18.56
2023-06-10T13:25:37.285Z,18.94
2023-06-10T13:28:05.584Z,19.32
2023-06-10T13:30:33.847Z,19.90
2023-06-10T13:33:02.244Z,20.42
2023-06-10T13:35:30.482Z,20.84
2023-06-10T13:37:58.870Z,21.07
2023-06-10T13:40:27.056Z,21.24
2023-06-10T13:42:55.361Z,21.54
2023-06-10T13:45:23.718Z,21.85
2023-06-10T13:47:51.970Z,22.03
2023-06-10T13:50:20.341Z,22.22
2023-06-10T13:52:48.699Z,22.40
2023-06-10T13:55:17.676Z,22.68
2023-06-10T13:57:45.963Z,22.95
2023-06-10T14:00:15.100Z,22.96
2023-06-10T14:02:43.406Z,23.07
2023-06-10T14:05:12.009Z,23.19
2023-06-10T14:07:41.729Z,23.37
2023-06-10T14:10:10.804Z,23.53
2023-06-10T14:12:39.034Z,23.68
2023-06-10T14:15:07.906Z,23.79
2023-06-10T14:17:36.836Z,23.86
2023-06-10T14:20:05.271Z,23.88
2023-06-10T14:22:33.532Z,23.80
2023-06-10T14:25:01.747Z,23.90
2023-06-10T14:27:30.144Z,24.09
2023-06-10T14:29:58.346Z,24.18
2023-06-10T14:32:26.668Z,24.36
2023-06-10T14:34:54.986Z,24.40
2023-06-10T14:37:23.209Z,24.46
2023-06-10T14:39:51.446Z,24.45
2023-06-10T14:42:19.791Z,24.50
2023-06-10T14:44:48.009Z,24.52
2023-06-10T14:47:16.291Z,24.55
2023-06-10T14:49:44.885Z,24.48
2023-06-10T14:52:13.141Z,24.41
2023-06-10T14:54:41.342Z,24.28
2023-06-10T14:57:09.593Z,24.12
2023-06-10T14:59:37.796Z,23.98
2023-06-10T15:02:06.313Z,23.87
2023-06-10T15:04:34.556Z,23.72
2023-06-10T15:07:02.825Z,23.62
2023-06-10T15:09:31.220Z,23.53
2023-06-10T15:12:00.870Z,23.44
2023-06-10T15:14:29.293Z,23.38
2023-06-10T15:16:59.349Z,23.30
2023-06-10T15:19:28.219Z,23.23
2023-06-10T15:21:56.500Z,23.18
2023-06-10T15:24:24.758Z,23.17
2023-06-10T15:26:52.991Z,23.16
2023-06-10T15:29:21.357Z,23.17
2023-06-10T15:31:49.633Z,23.21
2023-06-10T15:34:17.848Z,23.24
2023-06-10T15:36:46.159Z,23.31
2023-06-10T15:39:14.409Z,23.39
2023-06-10T15:41:42.697Z,23.38
2023-06-10T15:44:10.986Z,23.40
2023-06-10T15:46:39.320Z,23.43
2023-06-10T15:49:07.608Z,23.52
2023-06-10T15:51:35.845Z,23.54
2023-06-10T15:54:04.291Z,23.59
2023-06-10T15:56:32.569Z,23.66
2023-06-10T15:59:00.967Z,23.71
2023-06-10T16:01:29.233Z,23.76
2023-06-10T16:03:57.562Z,23.81
2023-06-10T16:06:26.639Z,23.92
2023-06-10T16:08:54.815Z,24.07
2023-06-10T16:11:24.033Z,24.24
2023-06-10T16:13:52.287Z,24.31
2023-06-10T16:16:20.682Z,24.36
2023-06-10T16:18:49.160Z,24.37
2023-06-10T16:21:17.507Z,24.42
2023-06-10T16:23:45.802Z,24.45
2023-06-10T16:26:14.195Z,24.42
2023-06-10T16:28:42.793Z,24.50
2023-06-10T16:31:11.114Z,24.50
2023-06-10T16:33:39.526Z,24.61
2023-06-10T16:36:07.969Z,24.67
2023-06-10T16:38:36.525Z,24.76
2023-06-10T16:41:04.940Z,24.83
2023-06-10T16:43:33.421Z,24.90
2023-06-10T16:46:01.624Z,25.02
2023-06-10T16:48:30.071Z,25.04
2023-06-10T16:50:58.510Z,25.03
2023-06-10T16:53:26.743Z,25.01
2023-06-10T16:55:55.331Z,24.97
2023-06-10T16:58:24.540Z,24.97
2023-06-10T17:00:53.001Z,24.98
2023-06-10T17:03:21.308Z,25.05
2023-06-10T17:05:49.796Z,25.03
2023-06-10T17:08:18.158Z,25.05
2023-06-10T17:10:46.383Z,25.05
2023-06-10T17:13:14.736Z,25.03
2023-06-10T17:15:43.010Z,25.08
2023-06-10T17:18:11.500Z,25.09
2023-06-10T17:20:39.898Z,25.04
2023-06-10T17:23:08.877Z,25.04
2023-06-10T17:25:37.999Z,25.03
2023-06-10T17:28:06.335Z,24.96
2023-06-10T17:30:34.658Z,24.96
2023-06-10T17:33:03.071Z,24.90
2023-06-10T17:35:31.380Z,24.82
2023-06-10T17:37:59.599Z,24.79
2023-06-10T17:40:27.975Z,24.80
2023-06-10T17:42:56.246Z,24.79
2023-06-10T17:45:24.898Z,24.71
2023-06-10T17:47:53.425Z,24.74
2023-06-10T17:50:21.803Z,24.67
2023-06-10T17:52:50.310Z,24.66
2023-06-10T17:55:18.701Z,24.63
2023-06-10T17:57:46.938Z,24.55
2023-06-10T18:00:15.429Z,24.55
2023-06-10T18:02:44.042Z,24.50
2023-06-10T18:05:12.751Z,24.41
2023-06-10T18:07:42.274Z,24.29
2023-06-10T18:10:11.990Z,24.19
2023-06-10T18:12:40.420Z,24.11
2023-06-10T18:15:09.370Z,24.07
2023-06-10T18:17:38.018Z,24.00
2023-06-10T18:20:07.121Z,23.95
2023-06-10T18:22:35.353Z,23.86
2023-06-10T18:25:05.797Z,23.79
2023-06-10T18:27:35.776Z,23.74
2023-06-10T18:30:04.239Z,23.68
2023-06-10T18:32:32.511Z,23.58
2023-06-10T18:35:00.937Z,23.54
2023-06-10T18:37:29.355Z,23.47
2023-06-10T18:39:57.581Z,23.41
2023-06-10T18:42:26.084Z,23.36
2023-06-10T18:44:54.705Z,23.33
2023-06-10T18:47:23.111Z,23.27
2023-06-10T18:49:51.409Z,23.17
2023-06-10T18:52:19.653Z,23.08
2023-06-10T18:54:47.903Z,22.96
2023-06-10T18:57:16.122Z,22.89
2023-06-10T18:59:44.840Z,22.83
2023-06-10T19:02:13.203Z,22.77
2023-06-10T19:04:41.543Z,22.71
2023-06-10T19:07:09.819Z,22.67
2023-06-10T19:09:38.426Z,22.61
2023-06-10T19:12:07.627Z,22.53
2023-06-10T19:14:35.882Z,22.51
2023-06-10T19:17:04.299Z,22.52
2023-06-10T19:19:32.956Z,22.53
2023-06-10T19:22:01.287Z,22.49
2023-06-10T19:24:29.509Z,22.46
2023-06-10T19:26:57.844Z,22.47
2023-06-10T19:29:26.249Z,22.43
2023-06-10T19:31:54.538Z,22.41
2023-06-10T19:34:23.080Z,22.39
2023-06-10T19:36:51.326Z,22.31
2023-06-10T19:39:19.514Z,22.24
2023-06-10T19:41:48.051Z,22.11
2023-06-10T19:44:16.303Z,21.99
2023-06-10T19:46:46.024Z,21.86
2023-06-10T19:49:14.324Z,21.73
2023-06-10T19:51:43.136Z,21.60
2023-06-10T19:54:11.526Z,21.50
2023-06-10T19:56:39.765Z,21.39
2023-06-10T19:59:07.986Z,21.28
2023-06-10T20:01:36.282Z,21.19
2023-06-10T20:04:05.951Z,21.09
2023-06-10T20:06:34.431Z,21.00
2023-06-10T20:09:02.732Z,20.91
2023-06-10T20:11:31.131Z,20.83
2023-06-10T20:13:59.385Z,20.74
2023-06-10T20:16:28.118Z,20.66
2023-06-10T20:18:56.742Z,20.58
2023-06-10T20:21:25.332Z,20.50
2023-06-10T20:23:54.068Z,20.42
2023-06-10T20:26:22.511Z,20.34
2023-06-10T20:28:51.011Z,20.26
2023-06-10T20:31:20.423Z,20.20
2023-06-10T20:33:48.718Z,20.15
2023-06-10T20:36:16.933Z,20.10
2023-06-10T20:38:45.149Z,20.04
2023-06-10T20:41:13.549Z,19.98
2023-06-10T20:43:41.743Z,19.93
2023-06-10T20:46:10.049Z,19.88
2023-06-10T20:48:38.659Z,19.83
2023-06-10T20:51:06.959Z,19.78
2023-06-10T20:53:35.678Z,19.71
2023-06-10T20:56:03.880Z,19.68
2023-06-10T20:58:32.115Z,19.65
2023-06-10T21:01:01.515Z,19.62
2023-06-10T21:03:29.879Z,19.58
2023-06-10T21:05:58.173Z,19.56
2023-06-10T21:08:27.947Z,19.56
2023-06-10T21:10:56.532Z,19.55
2023-06-10T21:13:24.855Z,19.53
2023-06-10T21:15:53.102Z,19.52
2023-06-10T21:18:21.424Z,19.50
2023-06-10T21:20:49.792Z,19.50
2023-06-10T21:23:18.123Z,19.47
2023-06-10T21:25:46.449Z,19.49
2023-06-10T21:28:15.696Z,19.52
2023-06-10T21:30:44.391Z,19.59
2023-06-10T21:33:12.660Z,19.76
2023-06-10T21:35:41.828Z,19.99
2023-06-10T21:38:09.979Z,20.14
2023-06-10T21:40:38.334Z,20.23
2023-06-10T21:43:07.395Z,20.26
2023-06-10T21:45:35.822Z,20.31
2023-06-10T21:48:04.228Z,20.32
2023-06-10T21:50:32.578Z,20.30
2023-06-10T21:53:01.520Z,20.31
2023-06-10T21:55:30.023Z,20.30
2023-06-10T21:57:58.268Z,20.29
2023-06-10T22:00:26.546Z,20.31
2023-06-10T22:02:54.956Z,20.32
2023-06-10T22:05:23.409Z,20.26
2023-06-10T22:07:52.470Z,20.28
2023-06-10T22:10:21.031Z,20.25
2023-06-10T22:12:49.434Z,20.19
2023-06-10T22:15:17.727Z,20.19
2023-06-10T22:17:46.567Z,20.15
2023-06-10T22:20:15.079Z,20.10
2023-06-10T22:22:43.314Z,20.08
2023-06-10T22:25:11.725Z,20.04
2023-06-10T22:27:40.191Z,20.00
2023-06-10T22:30:09.165Z,19.96
2023-06-10T22:32:37.426Z,19.93
2023-06-10T22:35:07.123Z,19.87
2023-06-10T22:37:36.712Z,19.86
2023-06-10T22:40:06.106Z,19.86
2023-06-10T22:42:34.339Z,19.90
2023-06-10T22:45:02.802Z,19.91
2023-06-10T22:47:31.067Z,19.90
2023-06-10T22:49:59.366Z,19.91
2023-06-10T22:52:27.653Z,19.92
2023-06-10T22:54:55.911Z,19.98
2023-06-10T22:57:24.274Z,20.01
2023-06-10T22:59:52.668Z,20.03
2023-06-10T23:02:21.021Z,20.05
2023-06-10T23:04:49.411Z,20.05
2023-06-10T23:07:19.448Z,20.01
2023-06-10T23:09:47.921Z,19.94
2023-06-10T23:12:16.226Z,19.91
2023-06-10T23:14:44.467Z,19.87
2023-06-10T23:17:13.660Z,19.93
2023-06-10T23:19:44.098Z,19.97
2023-06-10T23:22:12.402Z,19.99
2023-06-10T23:24:44.230Z,20.04
2023-06-10T23:27:17.268Z,20.04
2023-06-10T23:32:20.873Z,19.94
2023-06-10T23:34:49.525Z,19.87
2023-06-10T23:37:20.765Z,19.87
2023-06-10T23:39:49.617Z,19.84
2023-06-10T23:42:18.541Z,19.76
2023-06-10T23:44:46.762Z,19.72
2023-06-10T23:47:15.060Z,19.72
2023-06-10T23:49:43.306Z,19.70
2023-06-10T23:52:12.759Z,19.68
2023-06-10T23:54:41.210Z,19.62
2023-06-10T23:57:09.539Z,19.56
2023-06-10T23:59:37.925Z,19.52
